Flight Track Log - Related Links

Times and Time Zones

All times are in EDT time to prevent confusion due to time zone crossing. See the N606FT flight status page for this flight to view local times or setup timezone preferences in your user account.

Time Position Orientation Groundspeed Altitude Reporting Facility
EDT Latitude Longitude Course Direction KTS MPH feet Rate Location/Type
Tue 05:30:07 PM 28.3000 -80.7833 188° South 97 112 3,500  Level Orlando TRACON
Tue 05:31:07 PM 28.2667 -80.7833 180° South 118 136 3,600 50 Climbing Orlando TRACON
Tue 05:32:07 PM 28.2333 -80.8000 204° Southwest 122 140 3,600  Level Orlando TRACON
Tue 05:33:01 PM 28.2167 -80.8000 180° South 117 135 3,600  Level Orlando TRACON
Tue 05:34:07 PM 28.1667 -80.8000 180° South 120 138 3,600  Level Orlando TRACON
Tue 05:35:00 PM 28.1786 -80.7107 188° South  Level Estimated
Tue 05:35:07 PM 28.1333 -80.8000 180° South 118 136 3,600  Level Orlando TRACON
Tue 05:36:55 PM 28.0836 -80.8056 186° South 110 127 3,600  Level Miami Center
Tue 05:37:55 PM 28.0503 -80.8044 178° South 110 127 3,600  Level Miami Center
Tue 05:38:55 PM 28.0192 -80.8011 175° South 115 132 3,600  Level Miami Center
Tue 05:39:55 PM 27.9897 -80.8022 182° South 115 132 3,600  Level Miami Center
Tue 05:40:55 PM 27.9606 -80.8036 182° South 122 140 3,600  Level Miami Center
Tue 05:41:55 PM 27.9253 -80.8000 175° South 122 140 3,600  Level Miami Center
Tue 05:42:55 PM 27.8961 -80.7992 179° South 117 135 3,600  Level Miami Center
Tue 05:43:55 PM 27.8647 -80.7933 171° South 117 135 3,600  Level Miami Center
Tue 05:44:55 PM 27.8378 -80.7878 170° South 117 135 3,600 -50 Level Miami Center
Tue 05:45:55 PM 27.8006 -80.7817 172° South 117 135 3,500  Descending Miami Center
Tue 05:46:55 PM 27.7711 -80.7831 182° South 117 135 3,600 50 Climbing Miami Center
Tue 05:47:55 PM 27.7378 -80.7867 185° South 122 140 3,600  Level Miami Center
Tue 05:48:55 PM 27.7125 -80.7950 196° South 122 140 3,600  Level Miami Center
Tue 05:49:55 PM 27.6808 -80.8033 193° South 127 146 3,600  Level Miami Center
Tue 05:50:55 PM 27.6475 -80.8000 175° South 122 140 3,600  Level Miami Center
Tue 05:51:55 PM 27.6144 -80.7942 171° South 122 140 3,600  Level Miami Center
Tue 05:52:55 PM 27.5853 -80.7883 170° South 122 140 3,600  Level Miami Center
Tue 05:53:54 PM 27.5583 -80.7828 170° South 122 140 3,600  Level Miami Center
Tue 05:54:55 PM 27.5231 -80.7769 172° South 122 140 3,600 -50 Level Miami Center
Tue 05:55:55 PM 27.4917 -80.7733 174° South 122 140 3,500 -200 Descending Miami Center
Tue 05:56:55 PM 27.4564 -80.7700 175° South 122 140 3,200 -250 Descending Miami Center
Tue 05:57:55 PM 27.4250 -80.7664 174° South 122 140 3,000 -200 Descending Miami Center
Tue 05:58:55 PM 27.3933 -80.7817 203° Southwest 122 140 2,800  Descending Miami Center
Tue 06:33:19 PM 27.1839 -80.8075 174° South 97 112 3,000 Climbing Miami Center
Tue 06:34:19 PM 27.1592 -80.7994 164° South 97 112 3,100 50 Climbing Miami Center
Tue 06:35:19 PM 27.1344 -80.7869 156° South 102 117 3,100 -50 Level Miami Center
Tue 06:36:19 PM 27.1053 -80.7767 163° South 107 123 3,000 -50 Descending Miami Center
Tue 06:37:19 PM 27.0703 -80.7661 165° South 107 123 3,000  Level Miami Center
Tue 06:38:19 PM 27.0411 -80.7583 167° South 107 123 3,000  Level Miami Center
Tue 06:39:19 PM 27.0142 -80.7528 170° South 107 123 3,000 50 Level Miami Center
Tue 06:40:19 PM 26.9831 -80.7469 171° South 107 123 3,100 50 Climbing Miami Center
Tue 06:41:19 PM 26.9478 -80.7411 172° South 107 123 3,100 -50 Level Miami Center
Tue 06:42:19 PM 26.9164 -80.7353 171° South 112 129 3,000 -50 Descending Miami Center
Tue 06:43:19 PM 26.8875 -80.7297 170° South 112 129 3,000  Level Miami Center

Login

Don't have an account? Register now (free) for customized features, flight alerts, and more!